Time;durP1;ratioP1;P1;durP2;ratioP2;P2;SDS_P1;SDS_P2;PMS_P1;PMS_P2;Temp;Humidity;BMP_temperature;BMP_pressure;BME280_temperature;BME280_humidity;BME280_pressure;Samples;Min_cycle;Max_cycle;Signal;HPM_P1;HPM_P2
2024/02/09 08:04:19;;;;;;;2.70;1.50;;;;;;;;;;5130215;27;20282;-77
2024/02/09 08:06:46;;;;;;;1.50;1.40;;;;;;;;;;5130434;27;20209;-76
2024/02/09 08:09:14;;;;;;;2.45;1.88;;;;;;;;;;5129954;27;20203;-77
2024/02/09 08:11:42;;;;;;;1.40;1.30;;;;;;;;;;5121183;27;20227;-78
2024/02/09 08:14:09;;;;;;;2.35;1.77;;;;;;;;;;5129672;27;20653;-78
2024/02/09 08:16:38;;;;;;;4.78;1.40;;;;;;;;;;5121499;27;20213;-77
2024/02/09 08:19:09;;;;;;;2.78;1.80;;;;;;;;;;5127205;27;20658;-77
2024/02/09 08:21:39;;;;;;;1.88;1.65;;;;;;;;;;5118024;28;20750;-77
2024/02/09 08:24:10;;;;;;;1.45;1.42;;;;;;;;;;5126216;27;20211;-77
2024/02/09 08:26:37;;;;;;;1.30;1.20;;;;;;;;;;5126611;28;20199;-78
2024/02/09 08:29:05;;;;;;;1.40;1.30;;;;;;;;;;5118108;27;20226;-76
2024/02/09 08:31:32;;;;;;;2.20;1.45;;;;;;;;;;5109372;28;20219;-78
2024/02/09 08:33:59;;;;;;;1.52;1.42;;;;;;;;;;5129278;28;20227;-78
2024/02/09 08:36:27;;;;;;;2.58;1.83;;;;;;;;;;5121849;27;20211;-77
2024/02/09 08:38:56;;;;;;;2.38;1.65;;;;;;;;;;5120019;27;20209;-77
2024/02/09 08:41:23;;;;;;;1.40;1.30;;;;;;;;;;5116090;28;20223;-78
2024/02/09 08:43:51;;;;;;;1.40;1.30;;;;;;;;;;5122292;27;20221;-78
2024/02/09 08:46:18;;;;;;;1.45;1.30;;;;;;;;;;5130556;27;20199;-77
2024/02/09 08:48:46;;;;;;;1.30;1.20;;;;;;;;;;5130546;27;20195;-78
2024/02/09 08:51:13;;;;;;;1.30;1.20;;;;;;;;;;5117124;27;20693;-77
2024/02/09 08:53:42;;;;;;;0.95;0.95;;;;;;;;;;5118740;28;20219;-78
2024/02/09 08:56:11;;;;;;;1.33;1.23;;;;;;;;;;5131490;27;20702;-77
2024/02/09 08:58:38;;;;;;;2.75;1.80;;;;;;;;;;5123424;27;20211;-78
2024/02/09 09:01:06;;;;;;;1.77;1.67;;;;;;;;;;5124300;27;20227;-78
2024/02/09 09:03:33;;;;;;;1.35;1.25;;;;;;;;;;5123052;27;20298;-77
2024/02/09 09:06:02;;;;;;;1.25;1.15;;;;;;;;;;5123729;27;20233;-78
2024/02/09 09:08:30;;;;;;;2.35;1.50;;;;;;;;;;5132064;27;20207;-77
2024/02/09 09:10:58;;;;;;;1.50;1.40;;;;;;;;;;5131658;27;20219;-77
2024/02/09 09:13:27;;;;;;;2.65;2.15;;;;;;;;;;5124917;27;20227;-78
2024/02/09 09:15:54;;;;;;;2.20;1.65;;;;;;;;;;5099272;28;20204;-78
2024/02/09 09:18:21;;;;;;;1.35;1.25;;;;;;;;;;5118304;28;20233;-78
2024/02/09 09:20:53;;;;;;;1.50;1.40;;;;;;;;;;5117428;28;20242;-78
2024/02/09 09:23:20;;;;;;;1.83;1.50;;;;;;;;;;5119660;28;20188;-78
2024/02/09 09:25:48;;;;;;;2.47;1.88;;;;;;;;;;5110270;28;20211;-78
2024/02/09 09:28:17;;;;;;;2.10;1.23;;;;;;;;;;5118914;28;20214;-78
2024/02/09 09:30:47;;;;;;;5.80;4.25;;;;;;;;;;5117999;28;20323;-78
2024/02/09 09:33:15;;;;;;;1.70;1.60;;;;;;;;;;5110490;28;20252;-78
2024/02/09 09:35:42;;;;;;;1.85;1.73;;;;;;;;;;5117125;28;20256;-78
2024/02/09 09:38:10;;;;;;;2.13;1.35;;;;;;;;;;5105107;28;20207;-78
2024/02/09 09:40:37;;;;;;;1.60;1.42;;;;;;;;;;5105844;28;20231;-77
2024/02/09 09:43:05;;;;;;;1.30;1.20;;;;;;;;;;5105112;28;20210;-77
2024/02/09 09:45:34;;;;;;;1.83;1.70;;;;;;;;;;5103959;28;20295;-77
2024/02/09 09:48:07;;;;;;;1.80;1.70;;;;;;;;;;5095397;28;20208;-77
2024/02/09 09:50:36;;;;;;;2.92;1.60;;;;;;;;;;5102843;28;20222;-77
2024/02/09 09:53:06;;;;;;;1.73;1.63;;;;;;;;;;5115789;28;20205;-78
2024/02/09 09:55:34;;;;;;;2.85;1.95;;;;;;;;;;5108490;28;20214;-77
2024/02/09 09:58:02;;;;;;;2.30;2.03;;;;;;;;;;5106705;28;20207;-78
2024/02/09 10:00:31;;;;;;;1.90;1.70;;;;;;;;;;5099125;27;20224;-77
2024/02/09 10:03:04;;;;;;;2.00;1.88;;;;;;;;;;5105479;28;20215;-77
2024/02/09 10:05:32;;;;;;;1.77;1.67;;;;;;;;;;5106828;28;20650;-77
2024/02/09 10:07:59;;;;;;;4.20;2.42;;;;;;;;;;5114715;28;20583;-77
2024/02/09 10:10:29;;;;;;;4.82;2.00;;;;;;;;;;5115125;28;20223;-78
2024/02/09 10:13:05;;;;;;;3.15;2.45;;;;;;;;;;5098041;28;20585;-78
2024/02/09 10:15:32;;;;;;;2.40;2.03;;;;;;;;;;5106796;27;20203;-78
2024/02/09 10:18:00;;;;;;;3.50;2.35;;;;;;;;;;5103254;28;20208;-78
2024/02/09 10:20:29;;;;;;;2.33;2.10;;;;;;;;;;5101246;28;20223;-77
2024/02/09 10:22:57;;;;;;;2.60;1.83;;;;;;;;;;5105403;28;20246;-78
2024/02/09 10:25:25;;;;;;;2.10;1.90;;;;;;;;;;5107191;28;20647;-76
2024/02/09 10:27:52;;;;;;;2.90;2.45;;;;;;;;;;5111682;28;20218;-77
2024/02/09 10:30:20;;;;;;;3.38;2.08;;;;;;;;;;5099850;27;20205;-76
2024/02/09 10:32:47;;;;;;;2.53;2.33;;;;;;;;;;5101302;28;20199;-77
2024/02/09 10:35:15;;;;;;;2.05;1.85;;;;;;;;;;5098265;28;20224;-77
2024/02/09 10:37:44;;;;;;;3.15;1.73;;;;;;;;;;5113220;27;20207;-75
2024/02/09 10:40:12;;;;;;;2.65;2.25;;;;;;;;;;5097463;28;20207;-76
2024/02/09 10:42:40;;;;;;;2.22;2.03;;;;;;;;;;5096377;28;20287;-77
2024/02/09 10:45:09;;;;;;;4.68;2.22;;;;;;;;;;5097615;28;20567;-77
2024/02/09 10:47:39;;;;;;;2.85;2.17;;;;;;;;;;5098835;28;20699;-76
2024/02/09 10:50:10;;;;;;;2.75;2.55;;;;;;;;;;5097032;28;20654;-77
2024/02/09 10:52:42;;;;;;;3.08;2.65;;;;;;;;;;5105111;28;20654;-77
2024/02/09 10:55:14;;;;;;;2.42;2.08;;;;;;;;;;5097256;28;20212;-77
2024/02/09 10:57:44;;;;;;;2.20;2.00;;;;;;;;;;5114007;28;20282;-77
2024/02/09 11:00:14;;;;;;;2.38;2.17;;;;;;;;;;5108779;28;20208;-76
2024/02/09 11:02:43;;;;;;;2.33;2.13;;;;;;;;;;5102509;28;20212;-76
2024/02/09 11:05:14;;;;;;;2.42;1.77;;;;;;;;;;5101227;28;20250;-78
2024/02/09 11:07:43;;;;;;;3.33;2.00;;;;;;;;;;5094019;28;20189;-76
2024/02/09 11:10:15;;;;;;;2.00;1.80;;;;;;;;;;5105427;28;20804;-77
2024/02/09 11:12:43;;;;;;;2.25;2.05;;;;;;;;;;5102093;28;20651;-79
2024/02/09 11:15:14;;;;;;;2.58;2.38;;;;;;;;;;5104233;28;20224;-77
2024/02/09 11:17:46;;;;;;;3.58;2.95;;;;;;;;;;5100924;28;20214;-77
2024/02/09 11:20:14;;;;;;;4.32;3.08;;;;;;;;;;5098108;28;20208;-78
2024/02/09 11:22:47;;;;;;;2.65;2.35;;;;;;;;;;5104628;28;20295;-77
2024/02/09 11:25:19;;;;;;;4.28;2.30;;;;;;;;;;5113585;28;20180;-78
2024/02/09 11:27:51;;;;;;;7.65;2.83;;;;;;;;;;5104023;28;20200;-77
2024/02/09 11:30:20;;;;;;;3.28;2.70;;;;;;;;;;5099534;28;20207;-76
2024/02/09 11:32:49;;;;;;;2.88;2.60;;;;;;;;;;5102763;28;20250;-76
2024/02/09 11:35:16;;;;;;;2.65;2.20;;;;;;;;;;5092695;28;20227;-76
2024/02/09 11:37:44;;;;;;;2.92;2.72;;;;;;;;;;5101341;28;20202;-76
2024/02/09 11:40:13;;;;;;;3.72;2.88;;;;;;;;;;5112755;28;20575;-78
2024/02/09 11:42:42;;;;;;;5.30;3.08;;;;;;;;;;5112322;28;20210;-76
2024/02/09 11:45:10;;;;;;;3.30;2.45;;;;;;;;;;5112624;28;20196;-76
2024/02/09 11:47:38;;;;;;;2.53;2.10;;;;;;;;;;5112142;28;20196;-76
2024/02/09 11:50:08;;;;;;;2.33;2.05;;;;;;;;;;5112256;28;20242;-76
2024/02/09 11:52:36;;;;;;;3.13;2.88;;;;;;;;;;5105966;28;20683;-79
2024/02/09 11:55:04;;;;;;;2.53;2.33;;;;;;;;;;5102401;28;20235;-78
2024/02/09 11:57:32;;;;;;;4.03;2.53;;;;;;;;;;5108427;28;20253;-77
2024/02/09 12:00:01;;;;;;;4.45;3.25;;;;;;;;;;5112448;28;20203;-77
2024/02/09 12:02:28;;;;;;;4.68;3.40;;;;;;;;;;5103575;28;20215;-78
2024/02/09 12:04:56;;;;;;;3.10;2.80;;;;;;;;;;5101716;28;20227;-78
2024/02/09 12:07:23;;;;;;;4.70;3.53;;;;;;;;;;5100299;28;20204;-77
2024/02/09 12:09:51;;;;;;;3.40;3.00;;;;;;;;;;5092231;28;20207;-76
2024/02/09 12:12:23;;;;;;;3.47;2.50;;;;;;;;;;5105212;28;20577;-78
2024/02/09 12:14:52;;;;;;;2.85;2.60;;;;;;;;;;5098429;28;20570;-76
2024/02/09 12:17:21;;;;;;;2.42;2.22;;;;;;;;;;5112435;28;20245;-77
2024/02/09 12:19:49;;;;;;;4.15;3.00;;;;;;;;;;5095541;28;20204;-77
2024/02/09 12:22:16;;;;;;;2.22;2.03;;;;;;;;;;5107346;28;20231;-78
2024/02/09 12:24:44;;;;;;;2.65;2.45;;;;;;;;;;5103497;28;20210;-76
2024/02/09 12:27:16;;;;;;;9.73;3.70;;;;;;;;;;5103858;28;20838;-76
2024/02/09 12:29:43;;;;;;;2.88;2.58;;;;;;;;;;5103432;28;20207;-76
2024/02/09 12:32:11;;;;;;;4.90;2.75;;;;;;;;;;5091627;28;20232;-77
2024/02/09 12:34:47;;;;;;;6.75;3.20;;;;;;;;;;5100189;28;20297;-77
2024/02/09 12:37:15;;;;;;;6.10;2.88;;;;;;;;;;5108782;28;20651;-79
2024/02/09 12:39:47;;;;;;;5.13;3.55;;;;;;;;;;5109497;28;20203;-76
2024/02/09 12:42:14;;;;;;;2.75;2.53;;;;;;;;;;5107246;28;20371;-77
2024/02/09 12:44:46;;;;;;;3.83;2.60;;;;;;;;;;5091748;28;20201;-76
2024/02/09 12:47:14;;;;;;;2.90;2.63;;;;;;;;;;5100475;28;20253;-76
2024/02/09 12:49:43;;;;;;;3.83;2.20;;;;;;;;;;5101643;28;20205;-77
2024/02/09 12:52:14;;;;;;;3.72;2.70;;;;;;;;;;5115915;28;20224;-76
2024/02/09 12:54:42;;;;;;;2.50;2.13;;;;;;;;;;5102808;28;20647;-78
2024/02/09 12:57:10;;;;;;;3.22;2.67;;;;;;;;;;5112576;28;20579;-78
2024/02/09 12:59:37;;;;;;;3.38;2.75;;;;;;;;;;5104256;28;20204;-76
2024/02/09 13:02:07;;;;;;;3.38;2.60;;;;;;;;;;5102515;28;20220;-76
2024/02/09 13:04:35;;;;;;;5.15;3.60;;;;;;;;;;5112367;28;20204;-75
2024/02/09 13:07:06;;;;;;;4.57;2.58;;;;;;;;;;5110424;28;20646;-76
2024/02/09 13:09:34;;;;;;;4.38;2.53;;;;;;;;;;5111401;28;20286;-76
2024/02/09 13:12:02;;;;;;;2.78;2.30;;;;;;;;;;5107671;28;20224;-76
2024/02/09 13:14:29;;;;;;;2.67;2.47;;;;;;;;;;5114082;28;20199;-76
2024/02/09 13:16:57;;;;;;;5.13;2.28;;;;;;;;;;5117049;28;20263;-76
2024/02/09 13:19:24;;;;;;;3.35;2.20;;;;;;;;;;5107736;28;20573;-76
2024/02/09 13:21:54;;;;;;;3.03;2.70;;;;;;;;;;5109711;28;20224;-78
2024/02/09 13:24:22;;;;;;;6.15;2.92;;;;;;;;;;5110865;28;20204;-76
2024/02/09 13:26:50;;;;;;;4.03;2.63;;;;;;;;;;5110782;28;20195;-77
2024/02/09 13:29:24;;;;;;;4.35;3.10;;;;;;;;;;5113456;27;20207;-76
2024/02/09 13:31:52;;;;;;;3.28;2.75;;;;;;;;;;5109100;28;20351;-77
2024/02/09 13:34:21;;;;;;;5.22;3.13;;;;;;;;;;5110894;28;20713;-76
2024/02/09 13:36:49;;;;;;;4.03;1.90;;;;;;;;;;5109463;28;20269;-76
2024/02/09 13:39:16;;;;;;;2.38;2.03;;;;;;;;;;5112570;28;20207;-76
2024/02/09 13:41:45;;;;;;;2.67;2.47;;;;;;;;;;5101976;28;20697;-76
2024/02/09 13:44:15;;;;;;;3.80;2.50;;;;;;;;;;5118736;28;20267;-76
2024/02/09 13:46:43;;;;;;;2.58;1.90;;;;;;;;;;5101677;28;20261;-75
2024/02/09 13:49:11;;;;;;;2.83;2.22;;;;;;;;;;5119063;28;20200;-76
2024/02/09 13:51:38;;;;;;;2.47;2.28;;;;;;;;;;5101557;28;20311;-76
2024/02/09 13:54:07;;;;;;;4.63;2.67;;;;;;;;;;5096821;28;20204;-76
2024/02/09 13:56:37;;;;;;;2.92;2.65;;;;;;;;;;5097567;28;20254;-76
2024/02/09 13:59:04;;;;;;;2.40;2.05;;;;;;;;;;5109930;28;20263;-76
2024/02/09 14:01:34;;;;;;;2.70;2.50;;;;;;;;;;5109689;28;20219;-75
2024/02/09 14:04:04;;;;;;;2.28;2.13;;;;;;;;;;5106594;28;20212;-76
2024/02/09 14:06:32;;;;;;;3.80;2.50;;;;;;;;;;5106970;28;20196;-75
2024/02/09 14:09:00;;;;;;;4.18;2.85;;;;;;;;;;5109484;28;20480;-76
2024/02/09 14:11:27;;;;;;;5.90;3.13;;;;;;;;;;5109565;27;20234;-77
2024/02/09 14:13:55;;;;;;;4.15;2.55;;;;;;;;;;5109385;28;20211;-76
2024/02/09 14:16:22;;;;;;;6.63;2.85;;;;;;;;;;5118173;28;20295;-76
2024/02/09 14:18:51;;;;;;;3.80;2.85;;;;;;;;;;5109045;28;20700;-75
2024/02/09 14:21:18;;;;;;;7.13;3.03;;;;;;;;;;5109011;28;20231;-76
2024/02/09 14:23:46;;;;;;;6.32;3.97;;;;;;;;;;5109765;28;20207;-75
2024/02/09 14:26:15;;;;;;;3.10;2.65;;;;;;;;;;5117854;28;20296;-76
2024/02/09 14:28:43;;;;;;;5.63;3.45;;;;;;;;;;5117034;28;20195;-76
2024/02/09 14:31:11;;;;;;;4.25;3.75;;;;;;;;;;5101377;28;20223;-76
2024/02/09 14:33:40;;;;;;;4.85;4.35;;;;;;;;;;5109463;28;20300;-76
2024/02/09 14:36:17;;;;;;;4.53;3.83;;;;;;;;;;5109556;28;20310;-78
2024/02/09 14:38:45;;;;;;;4.18;2.95;;;;;;;;;;5117569;28;20203;-76
2024/02/09 14:41:12;;;;;;;3.38;3.08;;;;;;;;;;5109448;28;20231;-76
2024/02/09 14:43:41;;;;;;;2.70;2.50;;;;;;;;;;5108521;27;20200;-76
2024/02/09 14:46:09;;;;;;;2.60;2.22;;;;;;;;;;5109200;28;20578;-77
2024/02/09 14:48:37;;;;;;;3.17;2.78;;;;;;;;;;5108983;28;20203;-76
2024/02/09 14:51:06;;;;;;;2.45;2.25;;;;;;;;;;5117145;28;20335;-76
2024/02/09 14:53:35;;;;;;;2.97;2.67;;;;;;;;;;5116829;28;20206;-76
2024/02/09 14:56:03;;;;;;;4.32;2.78;;;;;;;;;;5113494;28;20208;-76
2024/02/09 14:58:30;;;;;;;2.83;2.58;;;;;;;;;;5112516;28;20238;-76
2024/02/09 15:00:58;;;;;;;1.88;1.70;;;;;;;;;;5114014;28;20233;-76
2024/02/09 15:03:26;;;;;;;2.65;1.90;;;;;;;;;;5110910;28;20218;-76
2024/02/09 15:05:53;;;;;;;2.40;2.20;;;;;;;;;;5116864;28;20196;-78
2024/02/09 15:08:21;;;;;;;2.97;2.17;;;;;;;;;;5108464;28;20199;-75
2024/02/09 15:10:50;;;;;;;5.28;1.85;;;;;;;;;;5099121;28;20230;-76
2024/02/09 15:13:17;;;;;;;3.13;2.22;;;;;;;;;;5103701;28;20215;-76
2024/02/09 15:15:45;;;;;;;2.45;2.20;;;;;;;;;;5105452;28;20205;-76
2024/02/09 15:18:15;;;;;;;2.25;1.88;;;;;;;;;;5103759;28;20227;-76
2024/02/09 15:20:44;;;;;;;3.45;2.38;;;;;;;;;;5104787;28;20268;-76
2024/02/09 15:23:12;;;;;;;2.88;2.15;;;;;;;;;;5115872;28;20291;-77
2024/02/09 15:25:40;;;;;;;3.00;2.50;;;;;;;;;;5099012;28;20249;-77
2024/02/09 15:28:09;;;;;;;4.68;2.80;;;;;;;;;;5099395;28;20204;-77
2024/02/09 15:30:37;;;;;;;3.25;2.85;;;;;;;;;;5108953;28;20381;-78
2024/02/09 15:33:05;;;;;;;2.55;2.33;;;;;;;;;;5116042;28;20290;-76
2024/02/09 15:35:33;;;;;;;2.80;2.10;;;;;;;;;;5115920;28;20199;-76
2024/02/09 15:38:00;;;;;;;2.83;2.08;;;;;;;;;;5112752;28;20228;-77
2024/02/09 15:40:28;;;;;;;3.47;2.47;;;;;;;;;;5103880;28;20228;-76
2024/02/09 15:42:56;;;;;;;2.30;1.67;;;;;;;;;;5112376;28;20207;-76
2024/02/09 15:45:24;;;;;;;6.55;2.40;;;;;;;;;;5101796;28;20271;-75
2024/02/09 15:47:52;;;;;;;3.42;2.40;;;;;;;;;;5115826;27;20210;-77
2024/02/09 15:50:20;;;;;;;6.05;3.70;;;;;;;;;;5110369;28;20208;-77
2024/02/09 15:52:48;;;;;;;4.38;2.20;;;;;;;;;;5104137;28;20225;-75
2024/02/09 15:55:16;;;;;;;5.30;3.30;;;;;;;;;;5108690;28;20783;-75
2024/02/09 15:57:45;;;;;;;2.13;1.90;;;;;;;;;;5106889;28;20237;-77
2024/02/09 16:00:17;;;;;;;4.00;3.30;;;;;;;;;;5108392;28;20234;-77
2024/02/09 16:02:48;;;;;;;4.43;2.85;;;;;;;;;;5106079;28;20222;-76
2024/02/09 16:05:15;;;;;;;2.45;2.13;;;;;;;;;;5104116;28;20294;-76
2024/02/09 16:07:44;;;;;;;1.95;1.77;;;;;;;;;;5104347;28;20287;-77
2024/02/09 16:10:17;;;;;;;1.90;1.80;;;;;;;;;;5103117;28;20647;-77
2024/02/09 16:12:46;;;;;;;2.03;1.70;;;;;;;;;;5111468;28;20571;-77
2024/02/09 16:15:18;;;;;;;2.67;1.67;;;;;;;;;;5103619;28;20294;-77
2024/02/09 16:17:47;;;;;;;2.88;1.52;;;;;;;;;;5113216;28;20241;-77
2024/02/09 16:20:16;;;;;;;2.13;1.98;;;;;;;;;;5107812;28;20204;-78
2024/02/09 16:22:44;;;;;;;2.22;1.80;;;;;;;;;;5106441;28;20226;-76
2024/02/09 16:25:15;;;;;;;2.50;1.70;;;;;;;;;;5110286;28;20207;-77
2024/02/09 16:27:44;;;;;;;3.83;1.80;;;;;;;;;;5111388;28;20211;-76
2024/02/09 16:30:12;;;;;;;3.03;2.33;;;;;;;;;;5115961;28;20200;-76
2024/02/09 16:32:39;;;;;;;2.50;1.88;;;;;;;;;;5108518;28;20210;-77
2024/02/09 16:35:09;;;;;;;2.25;1.92;;;;;;;;;;5102916;28;20294;-77
2024/02/09 16:37:36;;;;;;;3.42;2.20;;;;;;;;;;5110894;28;20310;-76
2024/02/09 16:40:05;;;;;;;3.20;1.73;;;;;;;;;;5111653;27;20203;-75
2024/02/09 16:42:32;;;;;;;3.83;2.25;;;;;;;;;;5111893;28;20211;-77
2024/02/09 16:44:59;;;;;;;2.15;1.95;;;;;;;;;;5107531;28;20858;-77
2024/02/09 16:47:28;;;;;;;1.80;1.70;;;;;;;;;;5114072;28;20195;-76
2024/02/09 16:49:56;;;;;;;4.88;2.10;;;;;;;;;;5108948;28;20203;-77
2024/02/09 16:52:24;;;;;;;2.30;2.20;;;;;;;;;;5113188;28;20245;-76
2024/02/09 16:54:52;;;;;;;2.78;1.70;;;;;;;;;;5117936;28;20199;-77
2024/02/09 16:57:21;;;;;;;3.28;1.90;;;;;;;;;;5112691;28;20214;-77
2024/02/09 16:59:50;;;;;;;4.30;3.50;;;;;;;;;;5102764;27;20656;-77
2024/02/09 17:02:18;;;;;;;6.00;3.97;;;;;;;;;;5110784;28;20232;-76
2024/02/09 17:04:48;;;;;;;6.07;4.28;;;;;;;;;;5119173;28;20634;-76
2024/02/09 17:07:15;;;;;;;20.55;13.98;;;;;;;;;;5119335;27;20570;-77
2024/02/09 17:09:44;;;;;;;10.30;5.63;;;;;;;;;;5102194;28;20200;-76
2024/02/09 17:12:13;;;;;;;4.78;3.72;;;;;;;;;;5114606;28;20224;-76
2024/02/09 17:14:41;;;;;;;3.78;3.13;;;;;;;;;;5098400;28;20211;-77
2024/02/09 17:17:09;;;;;;;2.80;2.50;;;;;;;;;;5118989;28;20228;-76
2024/02/09 17:19:36;;;;;;;2.30;1.95;;;;;;;;;;5118460;28;20318;-76
2024/02/09 17:22:04;;;;;;;2.72;2.50;;;;;;;;;;5109732;27;20224;-75
2024/02/09 17:24:31;;;;;;;2.65;2.45;;;;;;;;;;5111216;28;20211;-76
2024/02/09 17:27:00;;;;;;;1.90;1.80;;;;;;;;;;5115457;28;20218;-76
2024/02/09 17:29:28;;;;;;;2.05;1.85;;;;;;;;;;5107746;28;20204;-77
2024/02/09 17:31:55;;;;;;;2.28;2.08;;;;;;;;;;5108730;28;20230;-77
2024/02/09 17:34:26;;;;;;;1.58;1.45;;;;;;;;;;5110568;28;20207;-80
2024/02/09 17:36:54;;;;;;;5.10;2.20;;;;;;;;;;5108110;28;20202;-77
2024/02/09 17:39:23;;;;;;;1.83;1.70;;;;;;;;;;5106678;28;20220;-77
2024/02/09 17:41:50;;;;;;;1.92;1.60;;;;;;;;;;5108145;28;20598;-76
2024/02/09 17:44:19;;;;;;;1.70;1.60;;;;;;;;;;5110122;28;20210;-77
2024/02/09 17:46:48;;;;;;;1.95;1.85;;;;;;;;;;5117985;28;20291;-77
2024/02/09 17:49:15;;;;;;;2.67;1.88;;;;;;;;;;5106730;28;20200;-77
2024/02/09 17:51:43;;;;;;;2.90;2.00;;;;;;;;;;5106832;28;20278;-77
2024/02/09 17:54:10;;;;;;;2.55;2.08;;;;;;;;;;5118825;28;20208;-77
2024/02/09 17:56:37;;;;;;;1.88;1.70;;;;;;;;;;5109955;28;20210;-77
2024/02/09 17:59:05;;;;;;;2.25;1.50;;;;;;;;;;5106927;28;20228;-77
2024/02/09 18:01:36;;;;;;;2.95;2.03;;;;;;;;;;5106383;28;20319;-77
2024/02/09 18:04:04;;;;;;;4.07;2.20;;;;;;;;;;5117329;28;20218;-77
2024/02/09 18:06:31;;;;;;;2.00;1.80;;;;;;;;;;5110049;28;20204;-77
2024/02/09 18:08:59;;;;;;;2.20;1.70;;;;;;;;;;5107777;28;20290;-77
2024/02/09 18:11:26;;;;;;;2.20;2.00;;;;;;;;;;5104700;28;20323;-78
2024/02/09 18:13:54;;;;;;;2.42;1.85;;;;;;;;;;5101600;28;20204;-77
2024/02/09 18:16:21;;;;;;;2.58;2.15;;;;;;;;;;5112517;28;20715;-77
2024/02/09 18:18:50;;;;;;;3.17;2.00;;;;;;;;;;5105888;28;20229;-77
2024/02/09 18:21:18;;;;;;;2.65;1.60;;;;;;;;;;5105583;28;20234;-77
2024/02/09 18:23:46;;;;;;;2.72;2.25;;;;;;;;;;5107396;28;20204;-77
2024/02/09 18:26:13;;;;;;;4.53;2.33;;;;;;;;;;5117891;28;20203;-77
2024/02/09 18:28:41;;;;;;;2.00;1.80;;;;;;;;;;5109930;28;20294;-77
2024/02/09 18:31:13;;;;;;;3.25;2.33;;;;;;;;;;5106319;28;20227;-77
2024/02/09 18:33:42;;;;;;;2.33;2.13;;;;;;;;;;5115021;28;20208;-77
2024/02/09 18:36:11;;;;;;;2.42;2.00;;;;;;;;;;5113820;28;20212;-76
2024/02/09 18:38:38;;;;;;;1.65;1.55;;;;;;;;;;5105869;28;20230;-76
2024/02/09 18:41:05;;;;;;;3.83;2.65;;;;;;;;;;5109729;28;20661;-77
2024/02/09 18:43:33;;;;;;;1.85;1.60;;;;;;;;;;5117771;28;20299;-77
2024/02/09 18:46:01;;;;;;;2.35;2.10;;;;;;;;;;5109753;28;20223;-76
2024/02/09 18:48:28;;;;;;;3.22;2.15;;;;;;;;;;5108107;28;20267;-77
2024/02/09 18:50:55;;;;;;;2.90;1.90;;;;;;;;;;5114967;28;20314;-77
2024/02/09 18:53:24;;;;;;;2.17;1.98;;;;;;;;;;5115174;22;20208;-78
2024/02/09 18:55:52;;;;;;;3.85;1.85;;;;;;;;;;5043517;28;20209;-78
2024/02/09 18:58:19;;;;;;;2.63;2.05;;;;;;;;;;5027103;28;20206;-77
2024/02/09 19:00:48;;;;;;;3.30;1.92;;;;;;;;;;5044526;28;20206;-78
2024/02/09 19:03:15;;;;;;;3.10;2.28;;;;;;;;;;5048855;28;20206;-77
2024/02/09 19:05:43;;;;;;;3.90;1.92;;;;;;;;;;5023978;28;20203;-78
2024/02/09 19:08:10;;;;;;;3.45;2.30;;;;;;;;;;5027136;28;20229;-78
2024/02/09 19:10:39;;;;;;;2.33;2.10;;;;;;;;;;5027422;28;20245;-78
2024/02/09 19:13:08;;;;;;;5.93;1.90;;;;;;;;;;5026912;28;20210;-77
2024/02/09 19:15:37;;;;;;;4.35;2.58;;;;;;;;;;5026966;28;20298;-78
2024/02/09 19:18:06;;;;;;;2.20;1.95;;;;;;;;;;5023480;28;20207;-78
2024/02/09 19:20:34;;;;;;;3.38;2.40;;;;;;;;;;5022874;28;20601;-78
2024/02/09 19:23:02;;;;;;;4.13;3.47;;;;;;;;;;5015286;28;20302;-78
2024/02/09 19:25:29;;;;;;;2.80;2.42;;;;;;;;;;5015215;28;20650;-78
2024/02/09 19:27:58;;;;;;;2.90;2.42;;;;;;;;;;5015534;28;20253;-77
2024/02/09 19:30:26;;;;;;;3.08;2.20;;;;;;;;;;5014911;28;20210;-77
2024/02/09 19:32:54;;;;;;;3.08;1.73;;;;;;;;;;5015063;28;20207;-77
2024/02/09 19:35:23;;;;;;;2.50;1.85;;;;;;;;;;5014861;28;20341;-78
2024/02/09 19:37:51;;;;;;;3.38;2.22;;;;;;;;;;5015199;28;20293;-78
2024/02/09 19:40:20;;;;;;;4.88;2.55;;;;;;;;;;5014554;28;20317;-78
2024/02/09 19:42:49;;;;;;;2.22;2.00;;;;;;;;;;5014556;28;20265;-78
2024/02/09 19:45:18;;;;;;;4.07;2.08;;;;;;;;;;5014635;28;20231;-77
2024/02/09 19:47:52;;;;;;;1.73;1.63;;;;;;;;;;5022739;28;20237;-78
2024/02/09 19:50:20;;;;;;;3.30;2.28;;;;;;;;;;5014873;28;20594;-78
2024/02/09 19:52:47;;;;;;;2.70;1.80;;;;;;;;;;5014373;28;20260;-78
2024/02/09 19:55:16;;;;;;;7.00;2.20;;;;;;;;;;5014496;28;20239;-77
2024/02/09 19:57:45;;;;;;;3.80;1.88;;;;;;;;;;5014461;28;20661;-77
2024/02/09 20:00:14;;;;;;;3.40;3.03;;;;;;;;;;5014370;28;20685;-78
2024/02/09 20:02:44;;;;;;;4.78;2.80;;;;;;;;;;5013898;28;20207;-78
2024/02/09 20:05:12;;;;;;;6.82;2.53;;;;;;;;;;5019175;28;20722;-78
2024/02/09 20:07:40;;;;;;;3.35;1.80;;;;;;;;;;5018616;28;20211;-78
2024/02/09 20:10:10;;;;;;;2.05;1.75;;;;;;;;;;5006567;28;20203;-77
2024/02/09 20:12:39;;;;;;;1.83;1.70;;;;;;;;;;5013682;28;20214;-77
2024/02/09 20:15:15;;;;;;;4.25;3.10;;;;;;;;;;5017730;28;20284;-77
2024/02/09 20:17:45;;;;;;;3.70;2.30;;;;;;;;;;5017621;28;20657;-77
2024/02/09 20:20:17;;;;;;;4.78;2.90;;;;;;;;;;5022007;28;20252;-77
2024/02/09 20:22:48;;;;;;;2.45;1.67;;;;;;;;;;5022184;28;20236;-78
2024/02/09 20:25:15;;;;;;;2.45;2.25;;;;;;;;;;5014255;28;20305;-78
2024/02/09 20:27:44;;;;;;;1.85;1.60;;;;;;;;;;5014221;28;20215;-77
2024/02/09 20:30:13;;;;;;;3.35;2.55;;;;;;;;;;5014494;28;20199;-77
2024/02/09 20:32:42;;;;;;;1.73;1.63;;;;;;;;;;5013433;28;20597;-78
2024/02/09 20:35:11;;;;;;;2.63;1.65;;;;;;;;;;5014448;28;20285;-77
2024/02/09 20:37:38;;;;;;;3.40;2.88;;;;;;;;;;5022226;28;20210;-78
2024/02/09 20:40:08;;;;;;;2.80;1.88;;;;;;;;;;5013632;28;20238;-78
2024/02/09 20:42:36;;;;;;;2.38;2.17;;;;;;;;;;5014140;28;20857;-77
2024/02/09 20:45:06;;;;;;;4.05;2.50;;;;;;;;;;5013753;28;20763;-78
2024/02/09 20:47:39;;;;;;;3.33;2.15;;;;;;;;;;5021130;28;20594;-78
2024/02/09 20:50:09;;;;;;;3.58;2.65;;;;;;;;;;5005980;28;20203;-77
2024/02/09 20:52:38;;;;;;;2.28;2.08;;;;;;;;;;5014646;28;20207;-77
2024/02/09 20:55:10;;;;;;;2.60;2.00;;;;;;;;;;5013705;28;20684;-78
2024/02/09 20:57:38;;;;;;;2.38;1.95;;;;;;;;;;5014241;28;20219;-79
2024/02/09 21:00:07;;;;;;;3.80;2.00;;;;;;;;;;5014270;28;20233;-79
2024/02/09 21:02:34;;;;;;;2.78;2.58;;;;;;;;;;5013043;28;20286;-79
2024/02/09 21:05:07;;;;;;;2.80;2.10;;;;;;;;;;5014106;28;20231;-79
2024/02/09 21:07:34;;;;;;;3.65;2.17;;;;;;;;;;5014275;28;20203;-79
2024/02/09 21:10:04;;;;;;;5.13;2.20;;;;;;;;;;5014300;28;20765;-79
2024/02/09 21:12:32;;;;;;;3.97;2.50;;;;;;;;;;5016914;28;20238;-79
2024/02/09 21:14:59;;;;;;;3.25;2.58;;;;;;;;;;5017713;28;20641;-79
2024/02/09 21:17:26;;;;;;;3.10;2.42;;;;;;;;;;5025921;28;20209;-79
2024/02/09 21:19:54;;;;;;;3.90;2.47;;;;;;;;;;5017508;28;20542;-79
2024/02/09 21:22:22;;;;;;;2.55;2.35;;;;;;;;;;5017270;28;20233;-79
2024/02/09 21:24:50;;;;;;;3.10;2.25;;;;;;;;;;5017071;28;20227;-79
2024/02/09 21:27:20;;;;;;;5.55;2.38;;;;;;;;;;5017657;28;20214;-80
2024/02/09 21:29:48;;;;;;;2.55;2.08;;;;;;;;;;5017132;28;20628;-79
2024/02/09 21:32:15;;;;;;;3.25;2.58;;;;;;;;;;5017104;28;20206;-79
2024/02/09 21:34:47;;;;;;;2.03;1.85;;;;;;;;;;5016975;28;20231;-80
2024/02/09 21:37:16;;;;;;;2.33;1.73;;;;;;;;;;5017441;28;20209;-80
2024/02/09 21:39:43;;;;;;;2.25;2.10;;;;;;;;;;5025736;28;20207;-79
2024/02/09 21:42:11;;;;;;;2.60;2.40;;;;;;;;;;5027988;28;20224;-80
2024/02/09 21:44:39;;;;;;;5.07;2.40;;;;;;;;;;5028428;28;20921;-80
2024/02/09 21:47:07;;;;;;;2.53;2.28;;;;;;;;;;5028128;28;20198;-80
2024/02/09 21:49:37;;;;;;;2.45;2.25;;;;;;;;;;5028545;28;20556;-79
2024/02/09 21:52:06;;;;;;;3.05;2.75;;;;;;;;;;5025039;28;20222;-80
2024/02/09 21:54:34;;;;;;;2.85;2.28;;;;;;;;;;5025258;28;20238;-80
2024/02/09 21:57:03;;;;;;;3.88;2.67;;;;;;;;;;5025181;28;20210;-79
2024/02/09 21:59:31;;;;;;;3.20;3.00;;;;;;;;;;5025129;28;20207;-79
2024/02/09 22:02:00;;;;;;;2.97;2.40;;;;;;;;;;5016106;28;20237;-79
2024/02/09 22:04:27;;;;;;;2.28;2.10;;;;;;;;;;5016471;28;20227;-79
2024/02/09 22:06:54;;;;;;;2.22;2.03;;;;;;;;;;5016837;28;20219;-80
2024/02/09 22:09:22;;;;;;;2.67;2.42;;;;;;;;;;5016844;28;20261;-80
2024/02/09 22:11:49;;;;;;;2.50;2.30;;;;;;;;;;5024581;28;20298;-79
2024/02/09 22:14:18;;;;;;;5.68;2.78;;;;;;;;;;5024501;28;20825;-79
2024/02/09 22:16:46;;;;;;;3.53;2.13;;;;;;;;;;5016924;28;20211;-79
2024/02/09 22:19:18;;;;;;;2.90;2.65;;;;;;;;;;5016953;28;20211;-80
2024/02/09 22:21:47;;;;;;;4.45;2.47;;;;;;;;;;5024868;28;20318;-79
2024/02/09 22:24:15;;;;;;;2.85;2.58;;;;;;;;;;5016369;28;20231;-79
2024/02/09 22:26:42;;;;;;;3.38;3.08;;;;;;;;;;5016803;28;20671;-80
2024/02/09 22:29:09;;;;;;;5.80;3.83;;;;;;;;;;5016116;28;20206;-79
2024/02/09 22:31:37;;;;;;;2.35;2.15;;;;;;;;;;5016579;28;20211;-79
2024/02/09 22:34:05;;;;;;;2.65;2.28;;;;;;;;;;5015995;28;20573;-79
2024/02/09 22:36:34;;;;;;;2.65;2.45;;;;;;;;;;5023803;28;20244;-79
2024/02/09 22:39:02;;;;;;;2.75;2.15;;;;;;;;;;5017222;28;20567;-79
2024/02/09 22:41:29;;;;;;;4.50;3.30;;;;;;;;;;5016205;28;20269;-79
2024/02/09 22:43:57;;;;;;;3.05;2.58;;;;;;;;;;5017939;28;20233;-79
2024/02/09 22:46:25;;;;;;;3.53;2.47;;;;;;;;;;5021612;28;20250;-80
2024/02/09 22:48:53;;;;;;;2.20;2.00;;;;;;;;;;5016522;28;20238;-80
2024/02/09 22:51:20;;;;;;;2.33;2.13;;;;;;;;;;5015915;28;20290;-79
2024/02/09 22:53:51;;;;;;;2.42;2.20;;;;;;;;;;5016595;28;20243;-79